Terminal Aerodrome Forecast
Issued by NWS

Home | Current Version | Previous Version | Text Only | Print | Product List | Glossary Off
Versions: 1 2 3 4 5 6 7 8 9 10 11 12 13 14 15 16 17 18 19 20 21 22 23 24 25 26 27 28 29 30 31 32 33 34 35 36 37 38

000
FTUS45 KGGW 011500 AAA
TAFGDV
TAF AMD
KGDV 011501Z 0115/0212 36008KT 6SM FU BKN015
     FM011700 VRB05KT P6SM SCT010
     FM011800 VRB05KT P6SM VCTS SCT070CB
     FM020000 02008KT P6SM -TSRA BKN050CB
     FM020600 VRB05KT P6SM BKN100
      AMD LTD TO CLD VIS AND WIND=

USA.gov is the U.S. government's official web portal to all federal, state and local government web resources and services.